Terminal Aerodrome Forecast
Issued by NWS

Home | Current Version | Previous Version | Text Only | Print | Product List | Glossary On
Versions: 1 2 3 4 5 6 7 8 9 10 11 12 13 14 15 16 17 18 19 20 21 22 23
000
FTUS45 KGJT 201745
TAFEGE
TAF
KEGE 201745Z 2018/2118 00000KT P6SM SCT070 OVC100
     FM202200 25008KT P6SM VCSH SCT050 BKN110
     FM210000 24005KT P6SM -RASN SCT050 OVC070
     FM210200 VRB03KT 4SM -SN BR BKN030 OVC035
     FM210400 25004KT 2SM -SN BR BKN015 OVC030
     FM211100 29007KT 1SM -SN BR BKN010 OVC020=

USA.gov is the U.S. government's official web portal to all federal, state and local government web resources and services.